sensor_id;sensor_type;location;lat;lon;timestamp;pressure;altitude;pressure_sealevel;temperature;humidity
58757;BME280;44527;47.460;19.016;2023-03-26T00:00:51;99780.72;;;8.68;70.35
58757;BME280;44527;47.460;19.016;2023-03-26T00:03:55;99782.84;;;8.63;70.74
58757;BME280;44527;47.460;19.016;2023-03-26T00:06:58;99765.78;;;8.70;70.03
58757;BME280;44527;47.460;19.016;2023-03-26T00:10:01;99767.13;;;8.63;70.21
58757;BME280;44527;47.460;19.016;2023-03-26T00:13:04;99773.09;;;8.65;70.22
58757;BME280;44527;47.460;19.016;2023-03-26T00:16:07;99771.84;;;8.58;70.54
58757;BME280;44527;47.460;19.016;2023-03-26T00:19:10;99771.63;;;8.48;70.90
58757;BME280;44527;47.460;19.016;2023-03-26T00:22:12;99772.53;;;8.47;71.03
58757;BME280;44527;47.460;19.016;2023-03-26T00:25:17;99779.69;;;8.31;71.83
58757;BME280;44527;47.460;19.016;2023-03-26T00:28:22;99776.84;;;8.48;71.56
58757;BME280;44527;47.460;19.016;2023-03-26T00:31:24;99790.47;;;8.26;72.15
58757;BME280;44527;47.460;19.016;2023-03-26T00:34:26;99779.66;;;8.18;72.73
58757;BME280;44527;47.460;19.016;2023-03-26T00:37:29;99780.69;;;8.16;72.78
58757;BME280;44527;47.460;19.016;2023-03-26T00:40:31;99777.00;;;8.33;71.84
58757;BME280;44527;47.460;19.016;2023-03-26T00:43:37;99772.22;;;8.39;71.57
58757;BME280;44527;47.460;19.016;2023-03-26T00:46:39;99766.72;;;8.29;71.43
58757;BME280;44527;47.460;19.016;2023-03-26T00:49:42;99764.59;;;8.22;72.52
58757;BME280;44527;47.460;19.016;2023-03-26T00:52:47;99741.00;;;8.23;71.98
58757;BME280;44527;47.460;19.016;2023-03-26T00:55:49;99749.56;;;8.25;71.83
58757;BME280;44527;47.460;19.016;2023-03-26T00:58:52;99744.75;;;8.32;71.61
58757;BME280;44527;47.460;19.016;2023-03-26T01:01:55;99733.56;;;8.30;71.24
58757;BME280;44527;47.460;19.016;2023-03-26T01:05:00;99729.25;;;8.29;70.80
58757;BME280;44527;47.460;19.016;2023-03-26T01:11:27;99729.47;;;8.26;71.03
58757;BME280;44527;47.460;19.016;2023-03-26T01:14:30;99726.44;;;8.19;71.62
58757;BME280;44527;47.460;19.016;2023-03-26T01:17:32;99733.87;;;8.25;71.46
58757;BME280;44527;47.460;19.016;2023-03-26T01:20:35;99729.59;;;8.24;71.17
58757;BME280;44527;47.460;19.016;2023-03-26T01:23:42;99734.22;;;8.34;70.79
58757;BME280;44527;47.460;19.016;2023-03-26T01:32:57;99729.88;;;8.20;71.42
58757;BME280;44527;47.460;19.016;2023-03-26T01:36:16;99732.50;;;8.20;71.16
58757;BME280;44527;47.460;19.016;2023-03-26T01:39:23;99737.97;;;8.29;70.60
58757;BME280;44527;47.460;19.016;2023-03-26T01:45:33;99747.69;;;8.27;70.39
58757;BME280;44527;47.460;19.016;2023-03-26T01:48:38;99752.09;;;8.27;70.52
58757;BME280;44527;47.460;19.016;2023-03-26T01:51:41;99744.13;;;8.28;70.45
58757;BME280;44527;47.460;19.016;2023-03-26T01:54:44;99737.31;;;8.26;70.48
58757;BME280;44527;47.460;19.016;2023-03-26T02:01:03;99752.44;;;8.08;71.32
58757;BME280;44527;47.460;19.016;2023-03-26T02:04:19;99748.50;;;8.15;70.98
58757;BME280;44527;47.460;19.016;2023-03-26T02:10:46;99762.00;;;8.22;70.46
58757;BME280;44527;47.460;19.016;2023-03-26T02:13:50;99771.91;;;8.17;70.58
58757;BME280;44527;47.460;19.016;2023-03-26T02:16:52;99773.56;;;8.05;70.94
58757;BME280;44527;47.460;19.016;2023-03-26T02:19:55;99773.78;;;8.15;70.63
58757;BME280;44527;47.460;19.016;2023-03-26T02:22:57;99773.47;;;8.19;70.09
58757;BME280;44527;47.460;19.016;2023-03-26T02:26:02;99776.50;;;8.13;70.15
58757;BME280;44527;47.460;19.016;2023-03-26T02:29:06;99776.00;;;8.21;70.13
58757;BME280;44527;47.460;19.016;2023-03-26T02:32:09;99772.41;;;8.09;70.39
58757;BME280;44527;47.460;19.016;2023-03-26T02:35:14;99772.25;;;7.98;70.97
58757;BME280;44527;47.460;19.016;2023-03-26T02:38:17;99767.00;;;8.12;70.46
58757;BME280;44527;47.460;19.016;2023-03-26T02:41:20;99759.34;;;8.09;70.64
58757;BME280;44527;47.460;19.016;2023-03-26T02:44:23;99762.41;;;7.89;71.44
58757;BME280;44527;47.460;19.016;2023-03-26T02:47:31;99756.56;;;7.98;71.15
58757;BME280;44527;47.460;19.016;2023-03-26T02:50:38;99746.44;;;7.93;71.50
58757;BME280;44527;47.460;19.016;2023-03-26T02:53:42;99749.06;;;7.93;71.27
58757;BME280;44527;47.460;19.016;2023-03-26T02:56:45;99742.03;;;7.94;71.31
58757;BME280;44527;47.460;19.016;2023-03-26T02:59:48;99729.03;;;7.79;71.67
58757;BME280;44527;47.460;19.016;2023-03-26T03:02:53;99751.59;;;7.80;71.61
58757;BME280;44527;47.460;19.016;2023-03-26T03:05:59;99743.41;;;7.72;71.99
58757;BME280;44527;47.460;19.016;2023-03-26T03:09:03;99751.19;;;7.59;72.47
58757;BME280;44527;47.460;19.016;2023-03-26T03:12:07;99741.59;;;7.60;72.42
58757;BME280;44527;47.460;19.016;2023-03-26T03:15:09;99742.03;;;7.67;72.46
58757;BME280;44527;47.460;19.016;2023-03-26T03:18:12;99752.44;;;7.54;72.67
58757;BME280;44527;47.460;19.016;2023-03-26T03:21:14;99750.91;;;7.50;73.05
58757;BME280;44527;47.460;19.016;2023-03-26T03:24:16;99742.41;;;7.60;72.69
58757;BME280;44527;47.460;19.016;2023-03-26T03:27:20;99750.66;;;7.54;73.25
58757;BME280;44527;47.460;19.016;2023-03-26T03:30:23;99748.06;;;7.40;73.22
58757;BME280;44527;47.460;19.016;2023-03-26T03:33:27;99752.69;;;7.49;73.26
58757;BME280;44527;47.460;19.016;2023-03-26T03:36:29;99741.25;;;7.37;73.67
58757;BME280;44527;47.460;19.016;2023-03-26T03:39:35;99748.16;;;7.24;74.12
58757;BME280;44527;47.460;19.016;2023-03-26T03:42:37;99742.81;;;7.40;73.59
58757;BME280;44527;47.460;19.016;2023-03-26T03:45:40;99738.56;;;7.25;74.08
58757;BME280;44527;47.460;19.016;2023-03-26T03:48:42;99754.22;;;7.39;73.41
58757;BME280;44527;47.460;19.016;2023-03-26T03:51:49;99758.41;;;7.27;73.94
58757;BME280;44527;47.460;19.016;2023-03-26T03:54:52;99765.03;;;7.19;74.16
58757;BME280;44527;47.460;19.016;2023-03-26T03:57:55;99767.91;;;7.28;73.80
58757;BME280;44527;47.460;19.016;2023-03-26T04:00:59;99769.16;;;7.23;74.15
58757;BME280;44527;47.460;19.016;2023-03-26T04:04:07;99770.72;;;7.25;73.37
58757;BME280;44527;47.460;19.016;2023-03-26T04:07:11;99773.31;;;7.25;74.09
58757;BME280;44527;47.460;19.016;2023-03-26T04:10:15;99777.34;;;7.31;73.73
58757;BME280;44527;47.460;19.016;2023-03-26T04:13:21;99779.09;;;7.16;74.36
58757;BME280;44527;47.460;19.016;2023-03-26T04:16:24;99770.81;;;7.09;74.78
58757;BME280;44527;47.460;19.016;2023-03-26T04:19:26;99767.47;;;7.07;74.76
58757;BME280;44527;47.460;19.016;2023-03-26T04:22:29;99767.66;;;7.04;75.16
58757;BME280;44527;47.460;19.016;2023-03-26T04:25:35;99771.56;;;7.11;75.23
58757;BME280;44527;47.460;19.016;2023-03-26T04:28:43;99765.31;;;6.85;76.12
58757;BME280;44527;47.460;19.016;2023-03-26T04:31:50;99760.75;;;6.89;76.78
58757;BME280;44527;47.460;19.016;2023-03-26T04:35:00;99760.38;;;6.81;77.30
58757;BME280;44527;47.460;19.016;2023-03-26T04:38:04;99773.13;;;6.71;77.03
58757;BME280;44527;47.460;19.016;2023-03-26T04:41:09;99758.75;;;6.64;76.66
58757;BME280;44527;47.460;19.016;2023-03-26T04:44:13;99771.94;;;6.77;75.98
58757;BME280;44527;47.460;19.016;2023-03-26T04:47:19;99769.31;;;6.77;75.90
58757;BME280;44527;47.460;19.016;2023-03-26T04:50:21;99772.28;;;6.85;75.71
58757;BME280;44527;47.460;19.016;2023-03-26T04:53:25;99768.94;;;6.97;74.94
58757;BME280;44527;47.460;19.016;2023-03-26T04:59:41;99774.63;;;7.04;74.75
58757;BME280;44527;47.460;19.016;2023-03-26T05:02:44;99781.44;;;7.06;74.74
58757;BME280;44527;47.460;19.016;2023-03-26T05:05:47;99777.25;;;7.32;73.79
58757;BME280;44527;47.460;19.016;2023-03-26T05:08:50;99773.06;;;7.71;72.28
58757;BME280;44527;47.460;19.016;2023-03-26T05:11:54;99773.50;;;7.92;71.49
58757;BME280;44527;47.460;19.016;2023-03-26T05:14:57;99773.47;;;8.19;70.33
58757;BME280;44527;47.460;19.016;2023-03-26T05:18:02;99763.03;;;8.46;69.49
58757;BME280;44527;47.460;19.016;2023-03-26T05:21:05;99777.91;;;8.84;67.39
58757;BME280;44527;47.460;19.016;2023-03-26T05:24:07;99766.38;;;9.38;65.53
58757;BME280;44527;47.460;19.016;2023-03-26T05:27:13;99770.59;;;9.88;63.97
58757;BME280;44527;47.460;19.016;2023-03-26T05:30:19;99765.50;;;10.35;61.79
58757;BME280;44527;47.460;19.016;2023-03-26T05:33:23;99769.56;;;10.15;62.33
58757;BME280;44527;47.460;19.016;2023-03-26T05:36:27;99770.22;;;10.06;62.78
58757;BME280;44527;47.460;19.016;2023-03-26T05:39:31;99763.91;;;9.84;64.74
58757;BME280;44527;47.460;19.016;2023-03-26T05:42:34;99770.78;;;10.93;61.92
58757;BME280;44527;47.460;19.016;2023-03-26T05:45:38;99775.25;;;11.81;57.38
58757;BME280;44527;47.460;19.016;2023-03-26T05:48:42;99769.94;;;11.37;58.03
58757;BME280;44527;47.460;19.016;2023-03-26T05:51:44;99780.06;;;10.39;60.50
58757;BME280;44527;47.460;19.016;2023-03-26T05:54:47;99774.31;;;10.69;60.30
58757;BME280;44527;47.460;19.016;2023-03-26T05:57:52;99775.94;;;11.06;58.87
58757;BME280;44527;47.460;19.016;2023-03-26T06:01:01;99770.66;;;11.06;58.37
58757;BME280;44527;47.460;19.016;2023-03-26T06:04:09;99769.78;;;10.82;59.39
58757;BME280;44527;47.460;19.016;2023-03-26T06:07:13;99772.97;;;10.64;60.16
58757;BME280;44527;47.460;19.016;2023-03-26T06:10:16;99774.69;;;11.88;57.18
58757;BME280;44527;47.460;19.016;2023-03-26T06:13:20;99777.47;;;13.64;52.89
58757;BME280;44527;47.460;19.016;2023-03-26T06:16:23;99766.88;;;15.20;47.99
58757;BME280;44527;47.460;19.016;2023-03-26T06:19:28;99771.69;;;16.61;44.01
58757;BME280;44527;47.460;19.016;2023-03-26T06:22:31;99766.13;;;16.90;42.43
58757;BME280;44527;47.460;19.016;2023-03-26T06:25:37;99757.13;;;17.09;41.98
58757;BME280;44527;47.460;19.016;2023-03-26T06:28:40;99768.28;;;17.55;41.17
58757;BME280;44527;47.460;19.016;2023-03-26T06:31:43;99768.94;;;17.14;40.93
58757;BME280;44527;47.460;19.016;2023-03-26T06:34:46;99774.41;;;17.55;40.79
58757;BME280;44527;47.460;19.016;2023-03-26T06:37:48;99777.94;;;18.31;38.82
58757;BME280;44527;47.460;19.016;2023-03-26T06:40:51;99772.59;;;18.88;37.05
58757;BME280;44527;47.460;19.016;2023-03-26T06:43:55;99777.31;;;19.81;35.46
58757;BME280;44527;47.460;19.016;2023-03-26T06:46:58;99778.88;;;20.68;34.01
58757;BME280;44527;47.460;19.016;2023-03-26T06:50:01;99769.94;;;21.13;33.58
58757;BME280;44527;47.460;19.016;2023-03-26T06:53:06;99772.13;;;21.69;33.26
58757;BME280;44527;47.460;19.016;2023-03-26T06:56:09;99774.44;;;23.01;30.59
58757;BME280;44527;47.460;19.016;2023-03-26T06:59:12;99769.50;;;23.04;30.10
58757;BME280;44527;47.460;19.016;2023-03-26T07:02:25;99775.19;;;23.64;28.92
58757;BME280;44527;47.460;19.016;2023-03-26T07:05:41;99775.44;;;24.44;27.34
58757;BME280;44527;47.460;19.016;2023-03-26T07:08:43;99774.78;;;24.28;27.88
58757;BME280;44527;47.460;19.016;2023-03-26T07:11:48;99781.59;;;24.38;28.00
58757;BME280;44527;47.460;19.016;2023-03-26T07:14:51;99782.16;;;23.58;28.01
58757;BME280;44527;47.460;19.016;2023-03-26T07:17:55;99775.28;;;22.80;29.50
58757;BME280;44527;47.460;19.016;2023-03-26T07:20:57;99784.38;;;22.57;29.40
58757;BME280;44527;47.460;19.016;2023-03-26T07:24:03;99782.34;;;22.87;29.61
58757;BME280;44527;47.460;19.016;2023-03-26T07:33:43;99789.66;;;21.93;31.34
58757;BME280;44527;47.460;19.016;2023-03-26T07:36:53;99797.16;;;21.23;33.25
58757;BME280;44527;47.460;19.016;2023-03-26T07:40:04;99796.09;;;20.11;35.99
58757;BME280;44527;47.460;19.016;2023-03-26T07:43:14;99798.19;;;19.14;37.88
58757;BME280;44527;47.460;19.016;2023-03-26T07:46:20;99792.22;;;18.54;37.87
58757;BME280;44527;47.460;19.016;2023-03-26T07:49:27;99800.00;;;18.23;39.14
58757;BME280;44527;47.460;19.016;2023-03-26T07:52:31;99791.97;;;17.99;39.25
58757;BME280;44527;47.460;19.016;2023-03-26T07:55:35;99788.63;;;17.80;39.15
58757;BME280;44527;47.460;19.016;2023-03-26T08:05:28;99794.25;;;16.29;44.20
58757;BME280;44527;47.460;19.016;2023-03-26T08:09:16;99790.09;;;16.62;43.44
58757;BME280;44527;47.460;19.016;2023-03-26T08:15:17;99778.66;;;15.90;44.58
58757;BME280;44527;47.460;19.016;2023-03-26T08:18:28;99773.75;;;15.40;45.48
58757;BME280;44527;47.460;19.016;2023-03-26T08:24:41;99775.16;;;15.62;44.83
58757;BME280;44527;47.460;19.016;2023-03-26T08:31:03;99773.31;;;15.72;45.38
58757;BME280;44527;47.460;19.016;2023-03-26T08:34:08;99766.78;;;16.12;45.02
58757;BME280;44527;47.460;19.016;2023-03-26T08:37:11;99773.00;;;16.21;45.78
58757;BME280;44527;47.460;19.016;2023-03-26T08:40:15;99768.88;;;15.35;45.83
58757;BME280;44527;47.460;19.016;2023-03-26T09:06:06;99746.09;;;16.95;40.09
58757;BME280;44527;47.460;19.016;2023-03-26T09:12:48;99735.94;;;17.17;38.50
58757;BME280;44527;47.460;19.016;2023-03-26T09:38:28;99715.81;;;17.99;36.36
58757;BME280;44527;47.460;19.016;2023-03-26T09:41:34;99713.75;;;17.77;37.59
58757;BME280;44527;47.460;19.016;2023-03-26T09:44:56;99708.94;;;17.72;37.27
58757;BME280;44527;47.460;19.016;2023-03-26T09:48:11;99697.00;;;17.68;37.83
58757;BME280;44527;47.460;19.016;2023-03-26T09:51:27;99694.50;;;17.75;36.59
58757;BME280;44527;47.460;19.016;2023-03-26T10:04:23;99676.19;;;17.39;38.28
58757;BME280;44527;47.460;19.016;2023-03-26T10:07:39;99671.72;;;17.48;38.58
58757;BME280;44527;47.460;19.016;2023-03-26T10:13:58;99662.75;;;17.40;39.23
58757;BME280;44527;47.460;19.016;2023-03-26T10:37:08;99686.88;;;12.63;77.79
58757;BME280;44527;47.460;19.016;2023-03-26T10:53:31;99630.94;;;13.81;82.34
58757;BME280;44527;47.460;19.016;2023-03-26T10:56:38;99630.59;;;14.23;67.88
58757;BME280;44527;47.460;19.016;2023-03-26T10:59:41;99628.03;;;14.41;70.66
58757;BME280;44527;47.460;19.016;2023-03-26T11:02:53;99613.78;;;14.24;71.75
58757;BME280;44527;47.460;19.016;2023-03-26T11:06:07;99612.25;;;14.31;72.75
58757;BME280;44527;47.460;19.016;2023-03-26T11:12:24;99599.66;;;14.62;68.57
58757;BME280;44527;47.460;19.016;2023-03-26T11:15:41;99595.13;;;13.78;74.96
58757;BME280;44527;47.460;19.016;2023-03-26T11:18:51;99577.06;;;13.74;84.67
58757;BME280;44527;47.460;19.016;2023-03-26T11:32:22;99552.37;;;14.22;74.89
58757;BME280;44527;47.460;19.016;2023-03-26T11:38:43;99548.44;;;14.45;76.48
58757;BME280;44527;47.460;19.016;2023-03-26T11:41:46;99537.75;;;14.37;69.58
58757;BME280;44527;47.460;19.016;2023-03-26T11:44:58;99534.78;;;14.78;64.82
58757;BME280;44527;47.460;19.016;2023-03-26T11:48:46;99522.75;;;15.11;67.08
58757;BME280;44527;47.460;19.016;2023-03-26T11:51:32;99530.25;;;14.98;74.89
58757;BME280;44527;47.460;19.016;2023-03-26T11:54:34;99510.97;;;15.41;63.81
58757;BME280;44527;47.460;19.016;2023-03-26T11:57:39;99507.03;;;15.45;69.11
58757;BME280;44527;47.460;19.016;2023-03-26T12:00:44;99492.75;;;15.56;67.34
58757;BME280;44527;47.460;19.016;2023-03-26T12:03:56;99480.25;;;15.40;61.16
58757;BME280;44527;47.460;19.016;2023-03-26T12:07:33;99472.72;;;15.53;59.29
58757;BME280;44527;47.460;19.016;2023-03-26T12:16:36;99448.16;;;16.13;58.21
58757;BME280;44527;47.460;19.016;2023-03-26T12:19:39;99450.16;;;16.19;53.00
58757;BME280;44527;47.460;19.016;2023-03-26T12:22:42;99449.00;;;16.22;59.76
58757;BME280;44527;47.460;19.016;2023-03-26T12:25:46;99436.06;;;16.69;57.65
58757;BME280;44527;47.460;19.016;2023-03-26T12:29:09;99428.50;;;16.83;56.50
58757;BME280;44527;47.460;19.016;2023-03-26T12:32:12;99414.94;;;16.94;47.32
58757;BME280;44527;47.460;19.016;2023-03-26T12:35:25;99422.22;;;16.92;53.40
58757;BME280;44527;47.460;19.016;2023-03-26T12:41:41;99400.78;;;17.59;47.90
58757;BME280;44527;47.460;19.016;2023-03-26T12:45:04;99398.41;;;17.88;43.63
58757;BME280;44527;47.460;19.016;2023-03-26T12:48:11;99381.00;;;17.86;43.19
58757;BME280;44527;47.460;19.016;2023-03-26T12:57:35;99382.47;;;16.75;41.25
58757;BME280;44527;47.460;19.016;2023-03-26T13:07:00;99365.16;;;16.55;40.42
58757;BME280;44527;47.460;19.016;2023-03-26T13:10:27;99358.22;;;16.70;39.49
58757;BME280;44527;47.460;19.016;2023-03-26T13:20:11;99341.47;;;17.35;39.38
58757;BME280;44527;47.460;19.016;2023-03-26T13:45:49;99292.19;;;16.77;38.89
58757;BME280;44527;47.460;19.016;2023-03-26T13:58:58;99283.03;;;17.20;36.47
58757;BME280;44527;47.460;19.016;2023-03-26T14:02:14;99278.50;;;17.29;35.93
58757;BME280;44527;47.460;19.016;2023-03-26T14:05:23;99262.78;;;17.19;35.57
58757;BME280;44527;47.460;19.016;2023-03-26T14:08:31;99249.41;;;17.60;34.82
58757;BME280;44527;47.460;19.016;2023-03-26T14:14:57;99240.63;;;17.91;34.09
58757;BME280;44527;47.460;19.016;2023-03-26T14:31:00;99240.88;;;17.34;34.32
58757;BME280;44527;47.460;19.016;2023-03-26T14:37:31;99225.88;;;17.57;33.68
58757;BME280;44527;47.460;19.016;2023-03-26T14:53:27;99226.91;;;16.92;30.50
58757;BME280;44527;47.460;19.016;2023-03-26T15:09:39;99170.78;;;16.89;32.71
58757;BME280;44527;47.460;19.016;2023-03-26T15:39:09;99137.72;;;16.52;35.33
58757;BME280;44527;47.460;19.016;2023-03-26T15:42:24;99132.47;;;16.44;34.92
58757;BME280;44527;47.460;19.016;2023-03-26T15:45:34;99138.91;;;16.41;34.88
58757;BME280;44527;47.460;19.016;2023-03-26T15:58:05;99137.44;;;16.22;36.45
58757;BME280;44527;47.460;19.016;2023-03-26T16:24:34;99075.50;;;15.33;39.16
58757;BME280;44527;47.460;19.016;2023-03-26T16:27:38;99067.75;;;15.15;39.73
58757;BME280;44527;47.460;19.016;2023-03-26T16:30:40;99056.97;;;15.01;39.44
58757;BME280;44527;47.460;19.016;2023-03-26T16:33:43;99052.12;;;14.88;39.44
58757;BME280;44527;47.460;19.016;2023-03-26T16:36:51;99060.50;;;14.75;40.47
58757;BME280;44527;47.460;19.016;2023-03-26T16:39:55;99050.88;;;14.66;42.95
58757;BME280;44527;47.460;19.016;2023-03-26T16:43:27;99048.22;;;14.58;40.56
58757;BME280;44527;47.460;19.016;2023-03-26T16:46:46;99057.44;;;14.54;39.91
58757;BME280;44527;47.460;19.016;2023-03-26T16:50:06;99056.37;;;14.46;40.74
58757;BME280;44527;47.460;19.016;2023-03-26T17:09:21;99058.44;;;13.56;43.43
58757;BME280;44527;47.460;19.016;2023-03-26T17:12:29;99062.50;;;13.51;43.86
58757;BME280;44527;47.460;19.016;2023-03-26T17:22:46;99054.19;;;13.28;45.47
58757;BME280;44527;47.460;19.016;2023-03-26T17:25:18;99056.75;;;13.20;45.23
58757;BME280;44527;47.460;19.016;2023-03-26T17:32:09;99062.97;;;13.19;45.81
58757;BME280;44527;47.460;19.016;2023-03-26T17:35:13;99056.22;;;13.16;45.76
58757;BME280;44527;47.460;19.016;2023-03-26T17:47:47;99055.87;;;13.29;49.99
58757;BME280;44527;47.460;19.016;2023-03-26T17:50:52;99052.41;;;13.28;47.02
58757;BME280;44527;47.460;19.016;2023-03-26T17:53:56;99054.44;;;13.35;46.37
58757;BME280;44527;47.460;19.016;2023-03-26T17:57:01;99057.22;;;13.33;47.59
58757;BME280;44527;47.460;19.016;2023-03-26T18:00:04;99053.38;;;13.27;47.63
58757;BME280;44527;47.460;19.016;2023-03-26T18:03:13;99055.34;;;13.25;48.76
58757;BME280;44527;47.460;19.016;2023-03-26T18:06:25;99041.88;;;13.28;48.10
58757;BME280;44527;47.460;19.016;2023-03-26T18:19:12;99044.72;;;13.35;49.16
58757;BME280;44527;47.460;19.016;2023-03-26T18:22:29;99042.63;;;13.39;48.40
58757;BME280;44527;47.460;19.016;2023-03-26T18:25:31;99046.25;;;13.38;49.26
58757;BME280;44527;47.460;19.016;2023-03-26T18:28:37;99044.56;;;13.37;50.58
58757;BME280;44527;47.460;19.016;2023-03-26T18:31:41;99044.03;;;13.33;50.75
58757;BME280;44527;47.460;19.016;2023-03-26T18:34:47;99043.75;;;13.36;52.51
58757;BME280;44527;47.460;19.016;2023-03-26T18:37:52;99046.44;;;13.26;55.41
58757;BME280;44527;47.460;19.016;2023-03-26T18:40:55;99033.69;;;13.22;54.39
58757;BME280;44527;47.460;19.016;2023-03-26T18:44:01;99029.69;;;13.18;53.42
58757;BME280;44527;47.460;19.016;2023-03-26T18:47:05;99016.69;;;13.16;53.42
58757;BME280;44527;47.460;19.016;2023-03-26T18:50:15;99015.47;;;13.10;51.29
58757;BME280;44527;47.460;19.016;2023-03-26T18:53:20;99014.09;;;13.06;49.99
58757;BME280;44527;47.460;19.016;2023-03-26T18:56:57;99011.94;;;13.20;49.41
58757;BME280;44527;47.460;19.016;2023-03-26T18:59:54;98997.94;;;13.19;48.96
58757;BME280;44527;47.460;19.016;2023-03-26T19:03:05;98989.78;;;13.13;53.46
58757;BME280;44527;47.460;19.016;2023-03-26T19:06:09;98994.72;;;13.07;49.04
58757;BME280;44527;47.460;19.016;2023-03-26T19:09:13;98985.44;;;13.03;49.73
58757;BME280;44527;47.460;19.016;2023-03-26T19:12:32;98984.31;;;13.06;52.93
58757;BME280;44527;47.460;19.016;2023-03-26T19:15:36;98978.34;;;13.04;56.67
58757;BME280;44527;47.460;19.016;2023-03-26T19:18:39;98970.91;;;12.99;56.57
58757;BME280;44527;47.460;19.016;2023-03-26T19:21:45;98982.44;;;12.98;63.20
58757;BME280;44527;47.460;19.016;2023-03-26T19:24:47;98980.41;;;13.10;58.33
58757;BME280;44527;47.460;19.016;2023-03-26T19:27:51;98971.44;;;12.85;57.71
58757;BME280;44527;47.460;19.016;2023-03-26T19:30:54;98966.09;;;12.77;62.79
58757;BME280;44527;47.460;19.016;2023-03-26T19:34:00;98958.31;;;12.57;61.04
58757;BME280;44527;47.460;19.016;2023-03-26T19:37:13;98959.41;;;12.55;62.20
58757;BME280;44527;47.460;19.016;2023-03-26T19:40:21;98952.97;;;12.49;59.77
58757;BME280;44527;47.460;19.016;2023-03-26T19:43:30;98942.22;;;12.60;60.73
58757;BME280;44527;47.460;19.016;2023-03-26T19:46:33;98936.41;;;12.57;69.27
58757;BME280;44527;47.460;19.016;2023-03-26T19:49:55;98928.44;;;12.49;68.15
58757;BME280;44527;47.460;19.016;2023-03-26T19:56:18;98920.25;;;12.52;68.10
58757;BME280;44527;47.460;19.016;2023-03-26T19:59:22;98910.31;;;12.46;61.55
58757;BME280;44527;47.460;19.016;2023-03-26T20:02:25;98898.72;;;12.38;62.80
58757;BME280;44527;47.460;19.016;2023-03-26T20:05:28;98890.53;;;12.41;61.32
58757;BME280;44527;47.460;19.016;2023-03-26T20:08:32;98894.00;;;12.42;61.94
58757;BME280;44527;47.460;19.016;2023-03-26T20:11:35;98875.75;;;12.40;63.44
58757;BME280;44527;47.460;19.016;2023-03-26T20:14:40;98868.81;;;12.39;66.42
58757;BME280;44527;47.460;19.016;2023-03-26T20:17:44;98862.72;;;12.39;68.71
58757;BME280;44527;47.460;19.016;2023-03-26T20:20:48;98858.22;;;12.31;63.47
58757;BME280;44527;47.460;19.016;2023-03-26T20:23:51;98847.28;;;12.26;61.14
58757;BME280;44527;47.460;19.016;2023-03-26T20:26:56;98848.41;;;12.24;59.66
58757;BME280;44527;47.460;19.016;2023-03-26T20:29:59;98832.34;;;12.27;58.55
58757;BME280;44527;47.460;19.016;2023-03-26T20:33:01;98835.44;;;12.22;59.25
58757;BME280;44527;47.460;19.016;2023-03-26T20:36:14;98829.63;;;12.36;55.90
58757;BME280;44527;47.460;19.016;2023-03-26T20:39:35;98829.94;;;12.51;58.67
58757;BME280;44527;47.460;19.016;2023-03-26T20:42:38;98821.91;;;12.53;56.19
58757;BME280;44527;47.460;19.016;2023-03-26T20:45:40;98817.31;;;12.37;56.78
58757;BME280;44527;47.460;19.016;2023-03-26T20:48:43;98817.47;;;12.35;56.20
58757;BME280;44527;47.460;19.016;2023-03-26T20:51:46;98819.56;;;12.32;58.63
58757;BME280;44527;47.460;19.016;2023-03-26T20:54:49;98812.50;;;12.32;59.29
58757;BME280;44527;47.460;19.016;2023-03-26T20:57:52;98814.34;;;12.04;61.01
58757;BME280;44527;47.460;19.016;2023-03-26T21:00:58;98813.59;;;11.94;60.70
58757;BME280;44527;47.460;19.016;2023-03-26T21:04:01;98801.62;;;12.00;60.42
58757;BME280;44527;47.460;19.016;2023-03-26T21:07:05;98803.03;;;12.04;59.47
58757;BME280;44527;47.460;19.016;2023-03-26T21:10:19;98801.22;;;12.04;58.12
58757;BME280;44527;47.460;19.016;2023-03-26T21:16:27;98796.69;;;12.14;63.76
58757;BME280;44527;47.460;19.016;2023-03-26T21:19:29;98797.47;;;12.07;67.25
58757;BME280;44527;47.460;19.016;2023-03-26T21:22:36;98796.37;;;12.00;66.86
58757;BME280;44527;47.460;19.016;2023-03-26T21:25:45;98806.59;;;12.03;63.75
58757;BME280;44527;47.460;19.016;2023-03-26T21:28:49;98818.84;;;11.84;59.43
58757;BME280;44527;47.460;19.016;2023-03-26T21:31:52;98832.44;;;11.80;59.11
58757;BME280;44527;47.460;19.016;2023-03-26T21:34:55;98826.28;;;11.99;60.81
58757;BME280;44527;47.460;19.016;2023-03-26T21:38:02;98833.34;;;11.98;59.04
58757;BME280;44527;47.460;19.016;2023-03-26T21:41:05;98833.16;;;12.09;62.03
58757;BME280;44527;47.460;19.016;2023-03-26T21:44:07;98831.31;;;11.92;65.24
58757;BME280;44527;47.460;19.016;2023-03-26T21:47:09;98838.38;;;11.91;65.99
58757;BME280;44527;47.460;19.016;2023-03-26T21:50:13;98836.88;;;11.79;68.10
58757;BME280;44527;47.460;19.016;2023-03-26T21:53:16;98842.56;;;11.74;69.95
58757;BME280;44527;47.460;19.016;2023-03-26T21:56:22;98845.59;;;11.80;71.10
58757;BME280;44527;47.460;19.016;2023-03-26T21:59:55;98834.72;;;11.65;75.71
58757;BME280;44527;47.460;19.016;2023-03-26T22:03:42;98833.69;;;11.48;79.60
58757;BME280;44527;47.460;19.016;2023-03-26T22:06:24;98829.03;;;11.42;80.20
58757;BME280;44527;47.460;19.016;2023-03-26T22:09:29;98835.41;;;11.30;79.87
58757;BME280;44527;47.460;19.016;2023-03-26T22:12:37;98827.94;;;11.25;82.70
58757;BME280;44527;47.460;19.016;2023-03-26T22:15:40;98826.47;;;11.13;83.49
58757;BME280;44527;47.460;19.016;2023-03-26T22:18:42;98825.22;;;11.07;83.87
58757;BME280;44527;47.460;19.016;2023-03-26T22:21:44;98825.97;;;10.70;89.89
58757;BME280;44527;47.460;19.016;2023-03-26T22:24:47;98831.09;;;10.72;93.64
58757;BME280;44527;47.460;19.016;2023-03-26T22:27:49;98831.50;;;10.67;97.20
58757;BME280;44527;47.460;19.016;2023-03-26T22:30:52;98832.75;;;10.73;98.21